Time;durP1;ratioP1;P1;durP2;ratioP2;P2;SDS_P1;SDS_P2;PMS_P1;PMS_P2;Temp;Humidity;BMP_temperature;BMP_pressure;BME280_temperature;BME280_humidity;BME280_pressure;Samples;Min_cycle;Max_cycle;Signal;HPM_P1;HPM_P2
2023/03/09 00:00:21;;;;;;;;;;;;;;;15.87;43.09;97467.59;4509279;31;33513;-82
2023/03/09 00:02:51;;;;;;;;;;;;;;;15.89;42.82;97469.28;4511835;31;32900;-87
2023/03/09 00:05:20;;;;;;;;;;;;;;;15.80;43.17;97444.31;4510844;31;33715;-88
2023/03/09 00:07:47;;;;;;;;;;;;;;;15.76;43.23;97449.72;4512647;31;34302;-82
2023/03/09 00:10:15;;;;;;;;;;;;;;;15.64;43.71;97453.56;4513496;31;34197;-83
2023/03/09 00:12:42;;;;;;;;;;;;;;;15.84;43.46;97446.84;4503011;31;34871;-82
2023/03/09 00:15:10;;;;;;;;;;;;;;;15.75;43.47;97448.00;4510052;31;34005;-82
2023/03/09 00:17:37;;;;;;;;;;;;;;;15.45;44.17;97448.13;4511790;31;35218;-89
2023/03/09 00:20:17;;;;;;;;;;;;;;;15.56;44.08;97438.16;4512455;31;34045;-85
2023/03/09 00:22:48;;;;;;;;;;;;;;;15.18;44.89;97434.25;4514550;31;34847;-83
2023/03/09 00:25:16;;;;;;;;;;;;;;;15.30;44.76;97438.19;4514476;31;34055;-84
2023/03/09 00:27:45;;;;;;;;;;;;;;;15.17;45.08;97434.31;4514153;31;33999;-83
2023/03/09 00:30:13;;;;;;;;;;;;;;;15.18;44.91;97436.00;4506310;31;34092;-82
2023/03/09 00:32:40;;;;;;;;;;;;;;;15.37;44.70;97439.69;4506619;31;32650;-83
2023/03/09 00:35:08;;;;;;;;;;;;;;;15.22;44.79;97442.81;4512298;31;34899;-84
2023/03/09 00:37:37;;;;;;;;;;;;;;;15.06;45.36;97450.31;4507686;31;33835;-82
2023/03/09 00:40:09;;;;;;;;;;;;;;;14.71;46.09;97441.03;4511262;31;34341;-83
2023/03/09 00:42:37;;;;;;;;;;;;;;;15.29;44.76;97424.28;4505643;31;33599;-82
2023/03/09 00:45:06;;;;;;;;;;;;;;;15.38;44.69;97428.38;4512343;31;33634;-83
2023/03/09 00:47:33;;;;;;;;;;;;;;;15.17;44.92;97423.88;4511927;31;33881;-82
2023/03/09 00:50:01;;;;;;;;;;;;;;;14.73;46.02;97421.78;4511572;31;34875;-84
2023/03/09 00:52:28;;;;;;;;;;;;;;;14.73;46.15;97418.34;4512543;31;34288;-85
2023/03/09 00:54:55;;;;;;;;;;;;;;;15.17;44.88;97409.06;4512263;31;34159;-89
2023/03/09 00:57:23;;;;;;;;;;;;;;;15.12;45.04;97417.97;4506147;31;34040;-87
2023/03/09 00:59:51;;;;;;;;;;;;;;;14.75;45.96;97411.31;4512916;31;34295;-91
2023/03/09 01:02:20;;;;;;;;;;;;;;;15.03;45.42;97404.28;4514419;31;34259;-82
2023/03/09 01:04:48;;;;;;;;;;;;;;;15.58;43.89;97393.72;4514717;31;34404;-82
2023/03/09 01:07:15;;;;;;;;;;;;;;;14.56;46.29;97401.47;4513288;31;34370;-87
2023/03/09 01:09:43;;;;;;;;;;;;;;;14.82;45.85;97400.63;4508586;31;34226;-82
2023/03/09 01:12:10;;;;;;;;;;;;;;;14.67;46.11;97398.53;4514563;31;32559;-82
2023/03/09 01:14:37;;;;;;;;;;;;;;;15.06;45.29;97398.97;4513837;31;34211;-82
2023/03/09 01:17:05;;;;;;;;;;;;;;;15.08;45.22;97399.78;4513759;31;35868;-83
2023/03/09 01:19:32;;;;;;;;;;;;;;;15.19;44.93;97401.16;4513953;31;34112;-82
2023/03/09 01:22:00;;;;;;;;;;;;;;;14.67;46.12;97395.06;4514047;31;33185;-82
2023/03/09 01:24:27;;;;;;;;;;;;;;;14.81;45.81;97387.63;4513984;31;34979;-82
2023/03/09 01:26:55;;;;;;;;;;;;;;;14.63;46.16;97383.03;4513716;31;34145;-82
2023/03/09 01:29:22;;;;;;;;;;;;;;;14.51;46.50;97389.50;4514039;31;34290;-81
2023/03/09 01:31:50;;;;;;;;;;;;;;;14.51;46.23;97390.34;4514639;31;34198;-82
2023/03/09 01:34:18;;;;;;;;;;;;;;;15.08;45.46;97383.28;4512181;31;34247;-87
2023/03/09 01:36:45;;;;;;;;;;;;;;;15.11;44.99;97374.47;4511745;31;34772;-81
2023/03/09 01:39:12;;;;;;;;;;;;;;;15.03;45.27;97374.72;4514747;31;33700;-88
2023/03/09 01:41:40;;;;;;;;;;;;;;;15.16;44.71;97365.59;4514038;31;33424;-83
2023/03/09 01:44:13;;;;;;;;;;;;;;;15.09;44.51;97362.34;4513396;31;33773;-90
2023/03/09 01:47:00;;;;;;;;;;;;;;;15.56;43.77;97365.03;4512785;31;35143;-82
2023/03/09 01:49:41;;;;;;;;;;;;;;;15.22;44.60;97364.50;4514654;31;33967;-83
2023/03/09 01:52:10;;;;;;;;;;;;;;;14.83;45.55;97362.34;4513941;31;33263;-83
2023/03/09 01:54:38;;;;;;;;;;;;;;;15.45;43.92;97363.69;4513833;31;34166;-82
2023/03/09 01:57:10;;;;;;;;;;;;;;;15.13;43.99;97349.19;4513431;31;35265;-83
2023/03/09 01:59:38;;;;;;;;;;;;;;;15.28;43.55;97348.66;4513788;31;34286;-90
2023/03/09 02:02:05;;;;;;;;;;;;;;;15.50;43.13;97344.38;4514177;31;34078;-83
2023/03/09 02:04:38;;;;;;;;;;;;;;;15.00;43.94;97331.34;4512283;31;34952;-83
2023/03/09 02:07:05;;;;;;;;;;;;;;;15.21;43.84;97334.09;4502949;31;33974;-81
2023/03/09 02:09:38;;;;;;;;;;;;;;;15.03;44.00;97335.59;4501119;31;33730;-82
2023/03/09 02:12:08;;;;;;;;;;;;;;;14.84;44.53;97330.12;4505546;31;32935;-82
2023/03/09 02:14:35;;;;;;;;;;;;;;;15.05;43.89;97324.19;4507702;31;34205;-83
2023/03/09 02:17:02;;;;;;;;;;;;;;;15.05;43.61;97320.75;4510542;31;34248;-83
2023/03/09 02:19:36;;;;;;;;;;;;;;;15.13;43.77;97320.47;4503942;31;34587;-84
2023/03/09 02:22:04;;;;;;;;;;;;;;;15.11;43.28;97322.28;4509683;31;33385;-84
2023/03/09 02:24:54;;;;;;;;;;;;;;;15.60;42.11;97326.59;4513609;31;33697;-82
2023/03/09 02:27:23;;;;;;;;;;;;;;;15.51;41.99;97316.50;4502515;31;33956;-83
2023/03/09 02:29:51;;;;;;;;;;;;;;;15.58;41.65;97315.34;4501318;31;34000;-84
2023/03/09 02:32:19;;;;;;;;;;;;;;;15.48;41.69;97321.81;4510977;31;31636;-84
2023/03/09 02:34:47;;;;;;;;;;;;;;;14.55;44.28;97318.09;4510380;31;34371;-84
2023/03/09 02:37:29;;;;;;;;;;;;;;;15.21;42.83;97310.59;4512412;31;34379;-84
2023/03/09 02:39:59;;;;;;;;;;;;;;;15.43;42.26;97308.09;4513644;31;34378;-82
2023/03/09 02:42:28;;;;;;;;;;;;;;;15.32;42.07;97304.09;4508029;31;33117;-82
2023/03/09 02:44:56;;;;;;;;;;;;;;;15.07;43.15;97298.88;4513022;31;34343;-83
2023/03/09 02:47:23;;;;;;;;;;;;;;;14.91;43.82;97295.13;4511494;31;35156;-87
2023/03/09 02:49:51;;;;;;;;;;;;;;;14.71;44.35;97287.97;4512930;31;34308;-90
2023/03/09 02:52:19;;;;;;;;;;;;;;;14.69;44.50;97301.97;4515351;31;33489;-84
2023/03/09 02:54:47;;;;;;;;;;;;;;;14.69;45.19;97299.34;4512284;31;34378;-83
2023/03/09 02:57:15;;;;;;;;;;;;;;;14.91;44.90;97315.97;4508413;31;35365;-82
2023/03/09 02:59:42;;;;;;;;;;;;;;;14.89;45.23;97316.94;4508736;31;33853;-83
2023/03/09 03:02:09;;;;;;;;;;;;;;;14.62;45.41;97313.50;4510611;31;33729;-84
2023/03/09 03:04:39;;;;;;;;;;;;;;;14.98;45.34;97306.19;4514708;31;33971;-82
2023/03/09 03:07:07;;;;;;;;;;;;;;;14.97;44.45;97297.53;4514318;31;33909;-92
2023/03/09 03:09:34;;;;;;;;;;;;;;;14.91;45.00;97305.53;4515381;31;34704;-84
2023/03/09 03:12:02;;;;;;;;;;;;;;;14.22;46.46;97322.59;4515538;31;33454;-82
2023/03/09 03:14:31;;;;;;;;;;;;;;;14.53;45.44;97322.47;4512455;31;34320;-82
2023/03/09 03:16:59;;;;;;;;;;;;;;;15.19;43.95;97315.00;4513331;31;35294;-86
2023/03/09 03:19:26;;;;;;;;;;;;;;;15.33;44.14;97310.16;4505643;31;34806;-85
2023/03/09 03:21:54;;;;;;;;;;;;;;;15.27;43.95;97311.25;4513886;31;34311;-82
2023/03/09 03:24:21;;;;;;;;;;;;;;;15.45;43.52;97312.31;4512046;31;34213;-82
2023/03/09 03:26:50;;;;;;;;;;;;;;;15.28;43.89;97314.72;4514301;31;34181;-93
2023/03/09 03:29:18;;;;;;;;;;;;;;;15.32;43.98;97316.31;4513622;31;34973;-92
2023/03/09 03:31:46;;;;;;;;;;;;;;;15.28;43.59;97309.50;4513913;31;33193;-83
2023/03/09 03:34:13;;;;;;;;;;;;;;;14.62;44.61;97306.53;4511197;31;33666;-81
2023/03/09 03:36:41;;;;;;;;;;;;;;;13.77;47.50;97308.31;4514151;31;34043;-82
2023/03/09 03:39:08;;;;;;;;;;;;;;;14.62;44.64;97318.72;4512042;31;34290;-82
2023/03/09 03:41:36;;;;;;;;;;;;;;;14.93;43.66;97332.44;4514904;31;33418;-82
2023/03/09 03:44:04;;;;;;;;;;;;;;;14.29;45.92;97343.19;4513914;31;34072;-87
2023/03/09 03:46:32;;;;;;;;;;;;;;;14.91;45.00;97336.84;4511664;31;34469;-82
2023/03/09 03:48:59;;;;;;;;;;;;;;;14.53;45.29;97325.09;4512216;31;34209;-88
2023/03/09 03:51:27;;;;;;;;;;;;;;;14.21;46.41;97332.16;4514187;31;33601;-83
2023/03/09 03:53:56;;;;;;;;;;;;;;;14.46;45.58;97334.81;4513438;31;34061;-83
2023/03/09 03:56:24;;;;;;;;;;;;;;;14.34;46.44;97337.81;4513204;31;34598;-87
2023/03/09 03:58:51;;;;;;;;;;;;;;;14.83;44.53;97326.69;4512631;31;34984;-82
2023/03/09 04:01:19;;;;;;;;;;;;;;;14.76;44.31;97319.97;4510210;31;34219;-82
2023/03/09 04:03:47;;;;;;;;;;;;;;;14.38;45.60;97325.56;4513203;31;34290;-83
2023/03/09 04:06:15;;;;;;;;;;;;;;;14.01;47.20;97327.53;4510823;31;34353;-86
2023/03/09 04:08:43;;;;;;;;;;;;;;;14.11;45.96;97328.13;4513590;31;34109;-90
2023/03/09 04:11:11;;;;;;;;;;;;;;;14.38;45.67;97321.19;4512182;31;34280;-91
2023/03/09 04:13:39;;;;;;;;;;;;;;;14.50;45.25;97328.63;4509352;31;34359;-88
2023/03/09 04:16:07;;;;;;;;;;;;;;;14.41;45.80;97326.31;4514990;31;33772;-83
2023/03/09 04:18:35;;;;;;;;;;;;;;;14.78;44.83;97322.53;4513099;31;34505;-89
2023/03/09 04:21:02;;;;;;;;;;;;;;;14.73;44.63;97311.37;4511590;31;34045;-83
2023/03/09 04:23:30;;;;;;;;;;;;;;;14.86;44.28;97309.22;4514317;31;34878;-82
2023/03/09 04:25:59;;;;;;;;;;;;;;;14.82;44.39;97313.69;4513571;31;34537;-82
2023/03/09 04:28:27;;;;;;;;;;;;;;;14.66;44.46;97307.28;4513228;31;34575;-82
2023/03/09 04:30:54;;;;;;;;;;;;;;;14.86;44.11;97307.47;4511969;31;34260;-83
2023/03/09 04:33:23;;;;;;;;;;;;;;;14.92;43.71;97311.63;4513233;31;33617;-83
2023/03/09 04:35:50;;;;;;;;;;;;;;;14.93;43.49;97302.91;4515204;31;35031;-82
2023/03/09 04:38:18;;;;;;;;;;;;;;;14.92;43.48;97296.81;4517291;31;34186;-83
2023/03/09 04:40:46;;;;;;;;;;;;;;;14.89;43.36;97289.13;4515101;31;34097;-84
2023/03/09 04:43:13;;;;;;;;;;;;;;;15.04;43.01;97285.13;4518320;31;34062;-82
2023/03/09 04:45:41;;;;;;;;;;;;;;;15.03;43.10;97281.63;4518064;31;32786;-83
2023/03/09 04:48:09;;;;;;;;;;;;;;;15.14;42.84;97285.63;4518936;31;34878;-84
2023/03/09 04:50:37;;;;;;;;;;;;;;;14.66;43.87;97289.00;4514468;31;33116;-88
2023/03/09 04:53:05;;;;;;;;;;;;;;;15.08;42.88;97278.88;4517387;31;34177;-91
2023/03/09 04:55:35;;;;;;;;;;;;;;;15.08;42.98;97271.91;4517770;31;35199;-89
2023/03/09 04:58:03;;;;;;;;;;;;;;;15.09;42.98;97268.38;4519549;31;33163;-82
2023/03/09 05:00:32;;;;;;;;;;;;;;;15.22;42.52;97275.75;4517800;31;33186;-90
2023/03/09 05:03:01;;;;;;;;;;;;;;;15.09;42.71;97272.75;4505247;31;34933;-84
2023/03/09 05:05:29;;;;;;;;;;;;;;;15.28;42.43;97276.41;4518537;31;35066;-83
2023/03/09 05:07:56;;;;;;;;;;;;;;;15.23;42.62;97282.72;4511353;31;34079;-84
2023/03/09 05:10:24;;;;;;;;;;;;;;;15.05;42.98;97274.63;4514216;31;34464;-84
2023/03/09 05:12:53;;;;;;;;;;;;;;;15.26;42.53;97274.75;4517713;31;34188;-84
2023/03/09 05:15:20;;;;;;;;;;;;;;;15.37;42.47;97272.59;4516224;31;34021;-86
2023/03/09 05:17:48;;;;;;;;;;;;;;;15.43;42.26;97277.59;4518469;31;33745;-82
2023/03/09 05:20:16;;;;;;;;;;;;;;;15.15;42.69;97275.13;4517615;31;32835;-88
2023/03/09 05:22:44;;;;;;;;;;;;;;;15.05;43.06;97279.84;4517588;31;34356;-85
2023/03/09 05:25:12;;;;;;;;;;;;;;;15.19;42.83;97289.78;4514685;31;34404;-82
2023/03/09 05:27:39;;;;;;;;;;;;;;;15.10;43.18;97284.88;4517348;31;34608;-89
2023/03/09 05:30:07;;;;;;;;;;;;;;;15.08;43.27;97286.72;4512290;31;34102;-90
2023/03/09 05:32:35;;;;;;;;;;;;;;;15.08;43.33;97287.56;4513524;31;33993;-81
2023/03/09 05:35:02;;;;;;;;;;;;;;;15.04;43.47;97278.13;4516459;31;34149;-87
2023/03/09 05:37:31;;;;;;;;;;;;;;;15.18;43.09;97274.16;4516774;31;34091;-91
2023/03/09 05:39:59;;;;;;;;;;;;;;;15.19;43.11;97268.03;4515970;31;33735;-88
2023/03/09 05:42:26;;;;;;;;;;;;;;;15.02;43.55;97279.94;4515511;31;33910;-90
2023/03/09 05:44:54;;;;;;;;;;;;;;;15.04;43.64;97274.69;4517242;31;34309;-89
2023/03/09 05:47:23;;;;;;;;;;;;;;;15.08;43.71;97279.72;4514533;31;34671;-82
2023/03/09 05:49:50;;;;;;;;;;;;;;;15.02;43.85;97277.31;4507657;31;34134;-90
2023/03/09 05:52:18;;;;;;;;;;;;;;;15.37;43.23;97262.16;4515390;31;34237;-87
2023/03/09 05:54:45;;;;;;;;;;;;;;;15.11;43.87;97272.69;4514177;31;35203;-86
2023/03/09 05:57:12;;;;;;;;;;;;;;;15.46;44.03;97293.16;4514204;31;34893;-90
2023/03/09 05:59:40;;;;;;;;;;;;;;;15.08;44.64;97284.94;4510654;31;32979;-82
2023/03/09 06:02:08;;;;;;;;;;;;;;;14.46;46.79;97280.06;4513675;31;34377;-83
2023/03/09 06:04:38;;;;;;;;;;;;;;;14.42;47.15;97281.06;4514972;31;34381;-84
2023/03/09 06:07:05;;;;;;;;;;;;;;;14.96;45.82;97272.31;4514874;31;34541;-91
2023/03/09 06:09:33;;;;;;;;;;;;;;;14.66;46.66;97278.59;4515675;31;34296;-83
2023/03/09 06:12:01;;;;;;;;;;;;;;;14.29;47.75;97277.19;4515707;31;34420;-91
2023/03/09 06:14:29;;;;;;;;;;;;;;;13.86;49.27;97299.34;4515920;31;34376;-89
2023/03/09 06:16:57;;;;;;;;;;;;;;;14.73;47.21;97293.13;4515146;31;34058;-91
2023/03/09 06:19:25;;;;;;;;;;;;;;;15.20;46.20;97293.25;4515580;31;33994;-83
2023/03/09 06:21:52;;;;;;;;;;;;;;;15.15;46.46;97302.97;4515182;31;33856;-91
2023/03/09 06:24:19;;;;;;;;;;;;;;;14.65;47.76;97293.38;4515457;31;34894;-90
2023/03/09 06:26:47;;;;;;;;;;;;;;;15.08;46.86;97282.34;4515780;31;34076;-82
2023/03/09 06:29:15;;;;;;;;;;;;;;;15.53;45.82;97288.53;4514968;31;32969;-82
2023/03/09 06:31:43;;;;;;;;;;;;;;;15.29;46.28;97300.75;4515361;31;35479;-82
2023/03/09 06:34:10;;;;;;;;;;;;;;;14.70;48.07;97301.03;4514411;31;33725;-82
2023/03/09 06:36:38;;;;;;;;;;;;;;;15.11;46.93;97293.56;4515467;31;34955;-82
2023/03/09 06:39:05;;;;;;;;;;;;;;;14.98;47.47;97301.81;4515042;31;32798;-84
2023/03/09 06:41:33;;;;;;;;;;;;;;;15.58;46.60;97304.91;4515397;31;34207;-83
2023/03/09 06:44:02;;;;;;;;;;;;;;;15.32;47.54;97311.09;4515706;31;35236;-83
2023/03/09 06:46:29;;;;;;;;;;;;;;;15.55;47.02;97321.53;4515198;31;35682;-83
2023/03/09 06:48:57;;;;;;;;;;;;;;;15.52;47.06;97315.56;4512674;31;34493;-89
2023/03/09 06:51:24;;;;;;;;;;;;;;;15.65;46.89;97319.47;4515289;31;34285;-86
2023/03/09 06:53:52;;;;;;;;;;;;;;;15.13;47.88;97304.81;4515298;31;34176;-82
2023/03/09 06:56:22;;;;;;;;;;;;;;;15.49;46.89;97308.72;4514455;31;34979;-83
2023/03/09 06:58:52;;;;;;;;;;;;;;;15.40;47.54;97314.25;4514517;31;33317;-86
2023/03/09 07:01:20;;;;;;;;;;;;;;;15.13;47.98;97310.03;4515589;31;33764;-83
2023/03/09 07:03:47;;;;;;;;;;;;;;;15.29;47.61;97322.47;4514304;31;34105;-86
2023/03/09 07:06:15;;;;;;;;;;;;;;;15.08;48.28;97325.84;4515432;31;34048;-83
2023/03/09 07:08:42;;;;;;;;;;;;;;;14.95;48.26;97328.03;4515254;31;32915;-83
2023/03/09 07:11:09;;;;;;;;;;;;;;;15.18;47.76;97326.37;4515458;31;34307;-87
2023/03/09 07:13:37;;;;;;;;;;;;;;;14.83;48.82;97325.84;4513937;31;34557;-82
2023/03/09 07:16:04;;;;;;;;;;;;;;;15.04;48.37;97322.50;4515215;31;34361;-81
2023/03/09 07:18:32;;;;;;;;;;;;;;;14.71;48.96;97311.44;4515266;31;33759;-82
2023/03/09 07:21:00;;;;;;;;;;;;;;;14.78;48.95;97314.72;4515492;31;34649;-83
2023/03/09 07:23:28;;;;;;;;;;;;;;;14.48;49.97;97314.78;4515527;31;34898;-83
2023/03/09 07:26:00;;;;;;;;;;;;;;;14.68;49.52;97321.13;4515327;31;33458;-83
2023/03/09 07:28:27;;;;;;;;;;;;;;;14.83;49.28;97344.94;4513889;31;33184;-82
2023/03/09 07:30:54;;;;;;;;;;;;;;;14.41;50.39;97352.38;4515232;31;34206;-84
2023/03/09 07:33:21;;;;;;;;;;;;;;;14.03;51.39;97356.16;4515223;31;35127;-82
2023/03/09 07:35:49;;;;;;;;;;;;;;;14.24;50.96;97370.28;4514691;31;34502;-82
2023/03/09 07:38:16;;;;;;;;;;;;;;;14.67;49.99;97374.22;4515162;31;33531;-82
2023/03/09 07:40:44;;;;;;;;;;;;;;;14.87;49.29;97382.22;4515225;31;34961;-86
2023/03/09 07:43:11;;;;;;;;;;;;;;;15.14;48.65;97367.38;4514902;31;34573;-82
2023/03/09 07:45:40;;;;;;;;;;;;;;;14.87;49.25;97356.13;4515332;31;34082;-87
2023/03/09 07:48:08;;;;;;;;;;;;;;;14.90;49.13;97350.81;4515024;31;33963;-87
2023/03/09 07:50:35;;;;;;;;;;;;;;;15.17;48.50;97342.94;4514670;31;34016;-86
2023/03/09 07:53:03;;;;;;;;;;;;;;;15.13;48.79;97341.34;4514999;31;35225;-82
2023/03/09 07:55:34;;;;;;;;;;;;;;;15.05;48.81;97347.69;4514921;31;34218;-82
2023/03/09 07:58:01;;;;;;;;;;;;;;;14.75;49.75;97343.50;4514842;31;33329;-82
2023/03/09 08:00:29;;;;;;;;;;;;;;;14.90;49.22;97343.00;4513556;31;33886;-83
2023/03/09 08:02:56;;;;;;;;;;;;;;;15.45;47.94;97342.81;4514843;31;35258;-83
2023/03/09 08:05:24;;;;;;;;;;;;;;;14.64;49.93;97343.00;4514574;31;35120;-82
2023/03/09 08:07:51;;;;;;;;;;;;;;;14.88;49.28;97344.78;4515066;31;33033;-87
2023/03/09 08:10:18;;;;;;;;;;;;;;;15.03;49.11;97346.88;4514159;31;35084;-85
2023/03/09 08:12:46;;;;;;;;;;;;;;;15.56;47.71;97349.34;4514731;31;34208;-85
2023/03/09 08:15:13;;;;;;;;;;;;;;;15.41;48.24;97347.28;4514830;31;34260;-83
2023/03/09 08:17:41;;;;;;;;;;;;;;;15.47;48.07;97352.31;4515194;31;33543;-83
2023/03/09 08:20:08;;;;;;;;;;;;;;;14.96;49.47;97365.41;4514374;31;34107;-82
2023/03/09 08:22:36;;;;;;;;;;;;;;;15.18;48.89;97350.72;4515139;31;34066;-87
2023/03/09 08:25:04;;;;;;;;;;;;;;;15.01;49.48;97373.94;4514925;31;34512;-84
2023/03/09 08:27:38;;;;;;;;;;;;;;;14.94;50.00;97381.13;4514689;31;33587;-83
2023/03/09 08:30:06;;;;;;;;;;;;;;;15.30;48.95;97380.75;4513205;31;34337;-87
2023/03/09 08:32:34;;;;;;;;;;;;;;;15.26;49.11;97390.44;4512934;31;35178;-82
2023/03/09 08:35:01;;;;;;;;;;;;;;;15.60;48.29;97388.44;4513042;31;34267;-87
2023/03/09 08:37:28;;;;;;;;;;;;;;;15.49;48.52;97397.50;4514493;31;32777;-82
2023/03/09 08:39:56;;;;;;;;;;;;;;;15.45;48.99;97390.66;4514443;31;34320;-86
2023/03/09 08:42:23;;;;;;;;;;;;;;;15.94;47.94;97391.53;4514262;31;34095;-83
2023/03/09 08:44:50;;;;;;;;;;;;;;;15.48;49.00;97390.56;4512995;31;34009;-83
2023/03/09 08:47:18;;;;;;;;;;;;;;;15.68;48.53;97378.56;4514166;31;33444;-83
2023/03/09 08:49:46;;;;;;;;;;;;;;;15.72;48.41;97357.53;4514059;31;34157;-87
2023/03/09 08:52:14;;;;;;;;;;;;;;;15.78;48.11;97354.69;4512930;31;34318;-82
2023/03/09 08:54:42;;;;;;;;;;;;;;;15.95;48.02;97346.22;4514512;31;33383;-82
2023/03/09 08:57:09;;;;;;;;;;;;;;;15.94;47.97;97357.56;4512961;31;32734;-87
2023/03/09 08:59:37;;;;;;;;;;;;;;;15.32;49.46;97364.16;4514195;31;34049;-82
2023/03/09 09:02:04;;;;;;;;;;;;;;;15.99;48.04;97365.25;4512759;31;35339;-83
2023/03/09 09:04:32;;;;;;;;;;;;;;;15.83;48.55;97372.78;4514370;31;34556;-83
2023/03/09 09:06:59;;;;;;;;;;;;;;;16.53;46.86;97366.63;4514051;31;33537;-86
2023/03/09 09:09:26;;;;;;;;;;;;;;;16.54;46.78;97356.09;4513895;31;34654;-83
2023/03/09 09:11:53;;;;;;;;;;;;;;;16.51;46.96;97369.28;4513965;31;34799;-83
2023/03/09 09:14:21;;;;;;;;;;;;;;;16.74;46.56;97362.31;4513808;31;35111;-87
2023/03/09 09:16:50;;;;;;;;;;;;;;;16.83;46.42;97368.97;4513647;31;33822;-83
2023/03/09 09:19:18;;;;;;;;;;;;;;;16.41;47.55;97375.81;4513859;31;33898;-86
2023/03/09 09:21:45;;;;;;;;;;;;;;;16.00;48.33;97383.47;4514846;31;35223;-82
2023/03/09 09:24:13;;;;;;;;;;;;;;;16.49;47.31;97384.22;4514925;31;33683;-83
2023/03/09 09:26:41;;;;;;;;;;;;;;;16.70;46.77;97394.72;4516456;31;33498;-84
2023/03/09 09:29:08;;;;;;;;;;;;;;;17.14;45.81;97381.63;4516009;31;34348;-82
2023/03/09 09:31:35;;;;;;;;;;;;;;;17.47;44.97;97382.81;4516063;31;34008;-85
2023/03/09 09:34:03;;;;;;;;;;;;;;;17.58;44.82;97389.31;4516013;31;34890;-85
2023/03/09 09:36:30;;;;;;;;;;;;;;;17.32;45.21;97388.69;4516097;31;34100;-83
2023/03/09 09:38:57;;;;;;;;;;;;;;;17.46;45.23;97394.22;4515916;31;34184;-83
2023/03/09 09:41:30;;;;;;;;;;;;;;;17.64;45.11;97389.06;4516112;31;34488;-87
2023/03/09 09:44:02;;;;;;;;;;;;;;;17.85;44.34;97396.03;4516141;31;34880;-87
2023/03/09 09:46:29;;;;;;;;;;;;;;;17.55;45.17;97394.72;4515853;31;34165;-86
2023/03/09 09:48:56;;;;;;;;;;;;;;;17.85;44.73;97398.62;4514724;31;34109;-83
2023/03/09 09:51:52;;;;;;;;;;;;;;;17.92;44.42;97389.59;4514739;31;34191;-81
2023/03/09 09:54:37;;;;;;;;;;;;;;;18.14;44.07;97370.22;4491859;31;34907;-82
2023/03/09 09:57:13;;;;;;;;;;;;;;;18.23;44.46;97377.69;4515887;31;34231;-86
2023/03/09 09:59:59;;;;;;;;;;;;;;;18.34;44.34;97354.44;4514449;31;35108;-82
2023/03/09 10:02:45;;;;;;;;;;;;;;;18.39;44.07;97368.16;4515961;31;34530;-82
2023/03/09 10:05:33;;;;;;;;;;;;;;;18.16;44.11;97395.47;4514287;31;34520;-83
2023/03/09 10:08:01;;;;;;;;;;;;;;;18.18;43.68;97404.13;4504722;31;33011;-84
2023/03/09 10:10:29;;;;;;;;;;;;;;;18.25;43.32;97409.94;4514336;31;33965;-83
2023/03/09 10:12:56;;;;;;;;;;;;;;;18.17;43.90;97409.44;4514526;31;34136;-86
2023/03/09 10:15:28;;;;;;;;;;;;;;;18.31;43.76;97407.03;4514269;31;34375;-83
2023/03/09 10:17:57;;;;;;;;;;;;;;;18.22;43.93;97387.34;4514237;31;34347;-85
2023/03/09 10:20:27;;;;;;;;;;;;;;;18.66;43.81;97391.38;4514349;31;34221;-82
2023/03/09 10:22:55;;;;;;;;;;;;;;;19.01;42.54;97401.97;4514442;31;33926;-83
2023/03/09 10:25:23;;;;;;;;;;;;;;;18.98;42.55;97400.38;4515706;31;34136;-82
2023/03/09 10:27:56;;;;;;;;;;;;;;;18.98;42.96;97399.50;4514472;31;33194;-83
2023/03/09 10:30:38;;;;;;;;;;;;;;;19.19;42.12;97401.91;4514176;31;34984;-84
2023/03/09 10:33:14;;;;;;;;;;;;;;;19.07;42.33;97399.06;4513965;31;34478;-83
2023/03/09 10:35:42;;;;;;;;;;;;;;;19.40;41.53;97405.25;4514169;31;34132;-85
2023/03/09 10:38:16;;;;;;;;;;;;;;;19.59;41.29;97423.56;4515420;31;33417;-83
2023/03/09 10:40:48;;;;;;;;;;;;;;;19.92;40.18;97423.59;4514304;31;34912;-82
2023/03/09 10:43:28;;;;;;;;;;;;;;;19.30;40.61;97425.03;4513913;31;35238;-85
2023/03/09 10:46:11;;;;;;;;;;;;;;;19.23;40.55;97422.78;4515444;31;34165;-82
2023/03/09 10:48:39;;;;;;;;;;;;;;;19.13;40.93;97423.25;4515291;31;34117;-83
2023/03/09 10:51:17;;;;;;;;;;;;;;;19.90;39.76;97428.09;4515289;31;34114;-83
2023/03/09 10:53:46;;;;;;;;;;;;;;;20.14;38.94;97422.47;4513986;31;34079;-83
2023/03/09 10:56:27;;;;;;;;;;;;;;;20.31;38.28;97418.94;4513935;31;35133;-86
2023/03/09 10:59:03;;;;;;;;;;;;;;;20.27;38.32;97418.25;4515233;31;34537;-87
2023/03/09 11:01:30;;;;;;;;;;;;;;;19.97;38.88;97420.75;4515578;31;33760;-83
2023/03/09 11:03:57;;;;;;;;;;;;;;;20.54;38.25;97417.69;4514216;31;36052;-82
2023/03/09 11:06:27;;;;;;;;;;;;;;;20.56;38.18;97426.34;4515474;31;34343;-83
2023/03/09 11:09:14;;;;;;;;;;;;;;;20.35;38.01;97418.69;4514161;31;33296;-83
2023/03/09 11:11:44;;;;;;;;;;;;;;;20.78;37.42;97428.62;4513818;31;34256;-84
2023/03/09 11:14:29;;;;;;;;;;;;;;;20.28;38.29;97430.47;4513879;31;35118;-83
2023/03/09 11:16:57;;;;;;;;;;;;;;;20.36;38.04;97433.53;4513960;31;34351;-85
2023/03/09 11:19:25;;;;;;;;;;;;;;;19.78;39.28;97434.00;4515328;31;33469;-87
2023/03/09 11:22:00;;;;;;;;;;;;;;;20.19;38.03;97436.19;4513909;31;34218;-83
2023/03/09 11:24:38;;;;;;;;;;;;;;;19.75;37.73;97442.03;4513813;31;35248;-83
2023/03/09 11:27:05;;;;;;;;;;;;;;;19.61;37.20;97444.50;4513798;31;34248;-84
2023/03/09 11:29:35;;;;;;;;;;;;;;;19.55;37.44;97443.03;4515102;31;33323;-82
2023/03/09 11:32:03;;;;;;;;;;;;;;;20.27;35.77;97448.97;4515218;31;34108;-82
2023/03/09 11:34:31;;;;;;;;;;;;;;;19.71;37.06;97444.91;4515085;31;35335;-83
2023/03/09 11:37:00;;;;;;;;;;;;;;;19.37;37.01;97447.44;4515014;31;34117;-83
2023/03/09 11:39:32;;;;;;;;;;;;;;;20.25;35.18;97454.31;4513933;31;33064;-85
2023/03/09 11:42:01;;;;;;;;;;;;;;;20.56;34.73;97455.31;4513754;31;34112;-82
2023/03/09 11:44:36;;;;;;;;;;;;;;;20.49;34.79;97467.06;4512817;31;34116;-84
2023/03/09 11:47:04;;;;;;;;;;;;;;;20.07;35.46;97473.69;4513629;31;35080;-83
2023/03/09 11:49:32;;;;;;;;;;;;;;;20.16;34.88;97473.22;4514797;31;33349;-83
2023/03/09 11:51:59;;;;;;;;;;;;;;;19.53;36.42;97480.84;4513992;31;34011;-83
2023/03/09 11:54:31;;;;;;;;;;;;;;;19.63;36.21;97480.34;4515275;31;34227;-83
2023/03/09 11:57:01;;;;;;;;;;;;;;;19.33;36.35;97492.34;4514726;31;33921;-89
2023/03/09 11:59:31;;;;;;;;;;;;;;;20.09;34.61;97485.84;4513928;31;33491;-83
2023/03/09 12:02:00;;;;;;;;;;;;;;;19.35;35.54;97490.47;4513744;31;33795;-83
2023/03/09 12:04:27;;;;;;;;;;;;;;;19.87;34.79;97493.16;4513661;31;34094;-87
2023/03/09 12:07:14;;;;;;;;;;;;;;;19.52;35.36;97497.53;4515059;31;34625;-83
2023/03/09 12:09:51;;;;;;;;;;;;;;;18.90;36.85;97505.78;4482439;31;34351;-83
2023/03/09 12:12:23;;;;;;;;;;;;;;;19.69;35.33;97513.34;4514596;31;33744;-83
2023/03/09 12:14:52;;;;;;;;;;;;;;;18.16;38.07;97523.97;4513497;31;34221;-83
2023/03/09 12:17:20;;;;;;;;;;;;;;;18.69;37.19;97533.00;4514870;31;34561;-83
2023/03/09 12:19:48;;;;;;;;;;;;;;;18.70;37.13;97529.44;4514840;31;34029;-83
2023/03/09 12:22:17;;;;;;;;;;;;;;;18.13;38.18;97531.13;4513367;31;34109;-83
2023/03/09 12:24:45;;;;;;;;;;;;;;;18.57;37.27;97525.69;4514329;31;35321;-87
2023/03/09 12:27:14;;;;;;;;;;;;;;;18.71;37.38;97532.03;4514629;31;34110;-82
2023/03/09 12:29:52;;;;;;;;;;;;;;;18.65;38.19;97537.53;4514514;31;32946;-83
2023/03/09 12:32:26;;;;;;;;;;;;;;;18.11;38.95;97540.84;4513105;31;34303;-83
2023/03/09 12:35:13;;;;;;;;;;;;;;;18.88;37.95;97539.13;4514213;31;34268;-83
2023/03/09 12:37:41;;;;;;;;;;;;;;;18.66;38.55;97533.97;4512716;31;34593;-85
2023/03/09 12:40:29;;;;;;;;;;;;;;;18.51;39.77;97539.91;4512810;31;33939;-84
2023/03/09 12:42:57;;;;;;;;;;;;;;;18.68;38.15;97541.81;4514435;31;33746;-83
2023/03/09 12:45:27;;;;;;;;;;;;;;;19.80;36.46;97539.94;4514092;31;34311;-82
2023/03/09 12:48:18;;;;;;;;;;;;;;;19.52;35.40;97543.06;4514858;31;33924;-83
2023/03/09 12:50:45;;;;;;;;;;;;;;;19.48;35.09;97548.56;4506150;31;34076;-83
2023/03/09 12:53:16;;;;;;;;;;;;;;;18.24;36.58;97542.84;4514291;31;34117;-82
2023/03/09 12:55:45;;;;;;;;;;;;;;;18.44;35.92;97543.75;4514893;31;35361;-83
2023/03/09 12:58:22;;;;;;;;;;;;;;;17.77;37.43;97555.41;4515109;31;33904;-82